Time;durP1;ratioP1;P1;durP2;ratioP2;P2;SDS_P1;SDS_P2;PMS_P1;PMS_P2;Temp;Humidity;BMP_temperature;BMP_pressure;BME280_temperature;BME280_humidity;BME280_pressure;Samples;Min_cycle;Max_cycle;Signal;HPM_P1;HPM_P2
2021/12/05 00:22:12;;;;;;;13.23;7.75;;;3.40;99.90;;;;;;5104866;28;20519;-71
2021/12/05 00:24:44;;;;;;;17.52;7.57;;;3.40;99.90;;;;;;5101974;28;20020;-71
2021/12/05 00:27:17;;;;;;;16.13;8.18;;;3.30;99.90;;;;;;5101964;28;20032;-72
2021/12/05 00:30:08;;;;;;;17.45;8.40;;;3.30;99.90;;;;;;5098353;28;20092;-72
2021/12/05 00:54:27;;;;;;;19.17;9.35;;;3.30;99.90;;;;;;5105242;28;20024;-72
2021/12/05 01:13:26;;;;;;;19.52;9.88;;;3.40;99.90;;;;;;5104697;28;20072;-71
2021/12/05 01:15:49;;;;;;;20.10;10.10;;;3.40;99.90;;;;;;5097943;28;20028;-71
2021/12/05 01:18:17;;;;;;;21.27;9.98;;;3.40;99.90;;;;;;5098650;28;20508;-72
2021/12/05 01:20:46;;;;;;;18.73;9.98;;;3.30;99.90;;;;;;5103836;28;20256;-71
2021/12/05 01:23:29;;;;;;;19.08;10.35;;;3.40;99.90;;;;;;5101859;28;20031;-71
2021/12/05 01:28:30;;;;;;;17.90;9.68;;;3.30;99.90;;;;;;5094718;28;20051;-71
2021/12/05 01:33:49;;;;;;;18.63;9.55;;;3.20;99.90;;;;;;5081239;28;20044;-71
2021/12/05 01:39:06;;;;;;;22.65;11.45;;;3.00;99.90;;;;;;5074599;28;20108;-72
2021/12/05 01:47:13;;;;;;;22.63;10.48;;;3.00;99.90;;;;;;5073126;28;20028;-71
2021/12/05 02:00:32;;;;;;;20.38;9.77;;;2.90;99.90;;;;;;5079234;28;20035;-71
2021/12/05 02:09:06;;;;;;;17.50;8.50;;;2.90;99.90;;;;;;5070329;28;20030;-71
2021/12/05 02:42:54;;;;;;;21.42;6.78;;;2.70;99.90;;;;;;5103982;28;20024;-71
2021/12/05 02:45:20;;;;;;;13.52;6.35;;;2.70;99.90;;;;;;5103693;28;20032;-71
2021/12/05 02:47:50;;;;;;;18.75;7.32;;;2.70;99.90;;;;;;5102374;28;20572;-71
2021/12/05 02:50:17;;;;;;;13.98;6.65;;;2.70;99.90;;;;;;5092738;27;20035;-71
2021/12/05 02:52:44;;;;;;;13.82;6.35;;;2.70;99.90;;;;;;5104516;28;20036;-71
2021/12/05 02:55:24;;;;;;;13.20;5.80;;;2.80;99.90;;;;;;5097949;28;20030;-71
2021/12/05 02:57:54;;;;;;;11.50;5.47;;;2.80;99.90;;;;;;5101158;28;20058;-71
2021/12/05 03:00:36;;;;;;;12.40;5.65;;;2.80;99.90;;;;;;5101363;28;20035;-71
2021/12/05 03:03:05;;;;;;;19.55;6.10;;;2.80;99.90;;;;;;5095202;28;20621;-71
2021/12/05 03:05:30;;;;;;;14.00;5.70;;;2.80;99.90;;;;;;5091806;28;20020;-72
2021/12/05 03:08:01;;;;;;;11.90;5.28;;;2.90;99.90;;;;;;5099929;28;20107;-71
2021/12/05 03:10:28;;;;;;;13.43;5.47;;;2.90;99.90;;;;;;5099085;28;20549;-71
2021/12/05 03:12:54;;;;;;;13.35;5.18;;;2.90;99.90;;;;;;5101497;28;20032;-72
2021/12/05 03:15:21;;;;;;;11.27;5.10;;;2.90;99.90;;;;;;5098817;28;20619;-72
2021/12/05 03:17:46;;;;;;;10.13;4.65;;;2.90;99.90;;;;;;5103480;28;20028;-71
2021/12/05 03:20:16;;;;;;;16.10;5.50;;;2.90;99.90;;;;;;5100272;28;20046;-71
2021/12/05 03:22:42;;;;;;;9.88;4.90;;;2.80;99.90;;;;;;5106953;28;20015;-72
2021/12/05 03:25:09;;;;;;;14.30;5.38;;;2.80;99.90;;;;;;5106529;28;20236;-71
2021/12/05 03:27:35;;;;;;;12.35;4.57;;;2.70;99.90;;;;;;5102483;28;20031;-72
2021/12/05 03:30:03;;;;;;;11.93;5.13;;;2.70;99.90;;;;;;5088235;28;20036;-72
2021/12/05 03:32:28;;;;;;;12.88;4.68;;;2.70;99.90;;;;;;5101391;28;20505;-72
2021/12/05 03:34:54;;;;;;;10.82;4.70;;;2.70;99.90;;;;;;5096523;28;20028;-72
2021/12/05 03:37:20;;;;;;;11.02;4.72;;;2.70;99.90;;;;;;5088002;28;20249;-72
2021/12/05 03:39:45;;;;;;;10.70;4.75;;;2.60;99.90;;;;;;5100250;28;20032;-72
2021/12/05 03:42:11;;;;;;;12.30;4.95;;;2.60;99.90;;;;;;5092350;28;20024;-72
2021/12/05 03:44:38;;;;;;;14.85;5.20;;;2.50;99.90;;;;;;5096351;28;20237;-72
2021/12/05 03:47:06;;;;;;;12.55;4.50;;;2.50;99.90;;;;;;5103940;28;20062;-72
2021/12/05 03:49:34;;;;;;;10.63;4.88;;;2.50;99.90;;;;;;5099605;28;20031;-71
2021/12/05 03:52:07;;;;;;;8.70;4.47;;;2.50;99.90;;;;;;5092979;28;20516;-71
2021/12/05 03:54:33;;;;;;;16.45;5.18;;;2.50;99.90;;;;;;5099367;28;20051;-71
2021/12/05 03:56:59;;;;;;;13.82;4.78;;;2.50;99.90;;;;;;5098896;28;20773;-71
2021/12/05 03:59:28;;;;;;;10.02;4.82;;;2.60;99.90;;;;;;5091332;28;20058;-72
2021/12/05 04:01:55;;;;;;;12.70;4.60;;;2.60;99.90;;;;;;5100833;28;20028;-71
2021/12/05 04:04:21;;;;;;;10.73;4.65;;;2.60;99.90;;;;;;5098708;28;20024;-71
2021/12/05 04:06:48;;;;;;;10.65;4.80;;;2.70;99.90;;;;;;5094774;28;20031;-71
2021/12/05 04:09:15;;;;;;;16.98;4.95;;;2.70;99.90;;;;;;5096466;28;20485;-72
2021/12/05 04:11:46;;;;;;;8.00;4.05;;;2.70;99.90;;;;;;5097305;28;20074;-71
2021/12/05 04:14:14;;;;;;;12.20;5.03;;;2.70;99.90;;;;;;5101878;28;20115;-71
2021/12/05 04:16:42;;;;;;;13.45;4.78;;;2.70;99.90;;;;;;5094887;28;20097;-71
2021/12/05 04:19:09;;;;;;;14.75;4.38;;;2.70;99.90;;;;;;5101210;28;20206;-72
2021/12/05 04:21:36;;;;;;;13.82;4.78;;;2.70;99.90;;;;;;5095046;28;20020;-71
2021/12/05 04:24:05;;;;;;;9.93;4.32;;;2.70;99.90;;;;;;5099827;28;20029;-71
2021/12/05 04:26:31;;;;;;;10.55;4.18;;;2.70;99.90;;;;;;5094510;28;20554;-71
2021/12/05 04:28:57;;;;;;;15.13;4.35;;;2.70;99.90;;;;;;5094765;28;20036;-72
2021/12/05 04:31:22;;;;;;;10.38;3.83;;;2.80;99.90;;;;;;5092627;28;20016;-72
2021/12/05 04:33:50;;;;;;;19.85;5.65;;;2.80;99.90;;;;;;5102320;28;20092;-71
2021/12/05 04:36:17;;;;;;;12.27;3.85;;;2.80;99.90;;;;;;5098541;28;20024;-71
2021/12/05 04:38:43;;;;;;;11.60;3.78;;;2.80;99.90;;;;;;5097944;28;20035;-71
2021/12/05 04:41:09;;;;;;;13.30;4.90;;;2.80;99.90;;;;;;5099049;28;20024;-71
2021/12/05 04:43:38;;;;;;;10.70;4.03;;;2.80;99.90;;;;;;5096257;28;20075;-71
2021/12/05 04:46:07;;;;;;;11.50;4.43;;;2.80;99.90;;;;;;5093779;28;20097;-72
2021/12/05 04:48:33;;;;;;;15.30;4.68;;;2.70;99.90;;;;;;5103175;28;20043;-71
2021/12/05 04:51:00;;;;;;;13.93;4.00;;;2.70;99.90;;;;;;5104130;27;20040;-72
2021/12/05 04:53:28;;;;;;;10.63;4.00;;;2.70;99.90;;;;;;5100884;27;20097;-72
2021/12/05 04:55:55;;;;;;;13.73;3.63;;;2.70;99.90;;;;;;5102902;28;20455;-72
2021/12/05 04:58:20;;;;;;;9.25;3.40;;;2.70;99.90;;;;;;5098903;28;20039;-72
2021/12/05 05:00:47;;;;;;;9.00;3.22;;;2.70;99.90;;;;;;5098376;27;20050;-72
2021/12/05 05:03:14;;;;;;;11.32;4.80;;;2.70;99.90;;;;;;5101135;27;20110;-72
2021/12/05 05:05:48;;;;;;;11.88;4.68;;;2.70;99.90;;;;;;5102327;28;20080;-72
2021/12/05 05:08:14;;;;;;;11.88;4.00;;;2.70;99.90;;;;;;5098489;28;20038;-72
2021/12/05 05:10:40;;;;;;;13.02;3.60;;;2.70;99.90;;;;;;5097847;28;20028;-71
2021/12/05 05:13:05;;;;;;;8.27;3.50;;;2.80;99.90;;;;;;5099581;28;20586;-71
2021/12/05 05:15:31;;;;;;;12.05;3.53;;;2.80;99.90;;;;;;5100302;28;20032;-72
2021/12/05 05:17:59;;;;;;;14.98;4.13;;;2.70;99.90;;;;;;5092501;28;20033;-72
2021/12/05 05:44:55;;;;;;;12.30;3.80;;;2.80;99.90;;;;;;5105828;28;20027;-71
2021/12/05 05:49:59;;;;;;;11.88;3.40;;;2.80;99.90;;;;;;5100428;28;20035;-71
2021/12/05 05:52:27;;;;;;;15.02;3.95;;;2.80;99.90;;;;;;5100786;28;20035;-71
2021/12/05 05:54:55;;;;;;;15.20;3.38;;;2.80;99.90;;;;;;5106362;28;20036;-71
2021/12/05 05:57:40;;;;;;;16.30;3.33;;;2.80;99.90;;;;;;5104762;28;20047;-72
2021/12/05 06:00:17;;;;;;;14.20;3.75;;;2.70;99.90;;;;;;5097861;28;20028;-72
2021/12/05 06:05:30;;;;;;;17.42;3.50;;;2.70;99.90;;;;;;5100280;27;20038;-72
2021/12/05 06:07:56;;;;;;;11.90;3.90;;;2.60;99.90;;;;;;4746370;27;10001305;-75
2021/12/05 06:10:26;;;;;;;14.45;3.58;;;2.60;99.90;;;;;;5095950;28;20478;-71
2021/12/05 06:12:52;;;;;;;14.70;3.30;;;2.60;99.90;;;;;;5094145;28;20123;-71
2021/12/05 06:15:20;;;;;;;16.75;3.28;;;2.60;99.90;;;;;;5098978;28;20031;-71
2021/12/05 06:17:46;;;;;;;14.70;3.00;;;2.60;99.90;;;;;;5099424;27;20096;-71
2021/12/05 06:20:15;;;;;;;12.32;3.25;;;2.60;99.90;;;;;;5089712;27;20886;-71
2021/12/05 06:22:42;;;;;;;11.05;2.72;;;2.60;99.90;;;;;;5099650;28;20043;-71
2021/12/05 06:25:12;;;;;;;14.15;3.60;;;2.60;99.90;;;;;;5092218;28;20024;-71
2021/12/05 06:27:39;;;;;;;13.02;3.20;;;2.60;99.90;;;;;;5087148;28;20028;-71
2021/12/05 06:41:58;;;;;;;12.82;5.25;;;2.60;99.90;;;;;;5090685;28;20523;-71
2021/12/05 06:46:36;;;;;;;19.95;5.60;;;2.50;99.90;;;;;;5088999;28;20542;-71
2021/12/05 06:49:01;;;;;;;16.52;5.28;;;2.50;99.90;;;;;;5099003;28;20032;-71
2021/12/05 06:51:29;;;;;;;13.88;4.60;;;2.40;99.90;;;;;;5088462;27;20400;-73
2021/12/05 06:53:56;;;;;;;12.00;4.50;;;2.30;99.90;;;;;;5091810;27;20039;-71
2021/12/05 06:56:22;;;;;;;14.35;4.60;;;2.30;99.90;;;;;;5095215;28;20027;-71
2021/12/05 06:58:48;;;;;;;11.70;4.45;;;2.20;99.90;;;;;;5090220;28;20031;-72
2021/12/05 07:01:15;;;;;;;14.35;4.68;;;2.10;99.90;;;;;;5093745;27;20020;-71
2021/12/05 07:03:45;;;;;;;16.65;5.00;;;2.10;99.90;;;;;;5091811;28;20065;-71
2021/12/05 07:06:20;;;;;;;14.63;4.47;;;2.00;99.90;;;;;;5093081;28;20039;-71
2021/12/05 07:08:46;;;;;;;14.02;4.90;;;2.00;99.90;;;;;;5095586;28;20039;-73
2021/12/05 07:16:18;;;;;;;12.55;5.53;;;1.90;99.90;;;;;;5092015;28;20107;-71
2021/12/05 07:19:33;;;;;;;19.45;5.60;;;1.80;99.90;;;;;;5098875;28;20027;-71
2021/12/05 07:42:42;;;;;;;18.83;5.20;;;1.90;99.90;;;;;;5090075;28;20030;-71
2021/12/05 07:45:14;;;;;;;13.43;5.63;;;1.90;99.90;;;;;;5095961;28;20061;-71
2021/12/05 07:47:44;;;;;;;18.20;6.18;;;1.90;99.90;;;;;;5093028;28;20103;-71
2021/12/05 07:50:11;;;;;;;17.92;5.50;;;1.90;99.90;;;;;;5091802;28;20028;-71
2021/12/05 07:52:45;;;;;;;16.45;4.57;;;1.90;99.90;;;;;;5092287;28;20046;-71
2021/12/05 07:55:27;;;;;;;12.82;4.05;;;1.90;99.90;;;;;;5095902;28;20417;-71
2021/12/05 08:00:43;;;;;;;13.23;3.88;;;2.00;99.90;;;;;;5089017;28;20020;-70
2021/12/05 08:16:51;;;;;;;14.50;4.55;;;2.10;99.90;;;;;;5093435;28;20435;-71
2021/12/05 08:19:20;;;;;;;9.90;3.60;;;2.10;99.90;;;;;;5096708;28;20032;-71
2021/12/05 08:21:47;;;;;;;9.82;3.50;;;2.10;99.90;;;;;;5096612;28;20023;-71
2021/12/05 08:24:13;;;;;;;8.18;3.30;;;2.20;99.90;;;;;;5101437;28;20032;-70
2021/12/05 08:26:39;;;;;;;10.68;3.45;;;2.20;99.90;;;;;;5101098;28;20028;-71
2021/12/05 08:29:16;;;;;;;11.93;3.95;;;2.20;99.90;;;;;;5095761;28;20401;-71
2021/12/05 08:45:49;;;;;;;14.85;5.30;;;2.60;99.90;;;;;;5048697;28;20601;-70
2021/12/05 09:21:58;;;;;;;16.27;5.50;;;3.50;99.90;;;;;;5094944;28;20044;-71
2021/12/05 09:29:57;;;;;;;9.48;3.50;;;3.40;99.90;;;;;;5099685;28;20076;-71
2021/12/05 09:50:59;;;;;;;20.63;8.15;;;3.60;99.90;;;;;;5104495;28;20027;-72
2021/12/05 09:52:11;;;;;;;16.00;4.55;;;3.80;99.90;;;;;;5102694;28;20033;-71
2021/12/05 10:13:51;;;;;;;15.45;4.65;;;4.50;99.90;;;;;;5099922;28;20024;-71
2021/12/05 10:16:24;;;;;;;10.45;3.65;;;4.60;99.90;;;;;;5093376;28;20182;-71
2021/12/05 10:38:12;;;;;;;7.93;4.10;;;4.50;99.90;;;;;;5102298;28;20032;-71
2021/12/05 10:41:06;;;;;;;16.98;6.03;;;4.60;99.90;;;;;;5096580;28;20885;-71
2021/12/05 10:43:33;;;;;;;17.70;8.00;;;4.80;99.90;;;;;;5094343;27;20044;-71
2021/12/05 10:46:07;;;;;;;16.50;6.63;;;4.80;99.90;;;;;;5096380;28;20024;-71
2021/12/05 10:48:37;;;;;;;14.77;5.82;;;4.90;99.90;;;;;;5093773;28;20030;-71
2021/12/05 10:51:07;;;;;;;14.75;5.88;;;4.90;99.90;;;;;;5090709;28;20475;-72
2021/12/05 10:53:54;;;;;;;10.48;6.03;;;4.90;99.90;;;;;;5090938;28;20615;-71
2021/12/05 10:56:24;;;;;;;12.30;4.97;;;;;;;;;;5095042;28;20050;-71
2021/12/05 10:58:49;;;;;;;10.00;3.60;;;4.90;99.90;;;;;;5101960;28;20564;-71
2021/12/05 11:01:22;;;;;;;8.00;2.90;;;5.00;99.90;;;;;;5107168;28;20034;-71
2021/12/05 11:03:52;;;;;;;12.02;4.47;;;5.00;99.90;;;;;;5108312;28;20031;-71
2021/12/05 11:06:21;;;;;;;11.02;4.93;;;4.90;99.90;;;;;;5105972;28;20024;-71
2021/12/05 11:08:53;;;;;;;11.32;4.10;;;4.90;99.90;;;;;;5104415;28;20035;-71
2021/12/05 11:11:18;;;;;;;10.70;3.85;;;4.90;99.90;;;;;;5088443;28;20032;-71
2021/12/05 11:13:45;;;;;;;9.70;3.30;;;4.90;99.90;;;;;;5096402;28;20401;-71
2021/12/05 11:16:56;;;;;;;10.40;3.53;;;5.00;99.90;;;;;;5088089;28;20028;-71
2021/12/05 11:19:21;;;;;;;9.98;3.47;;;5.10;99.90;;;;;;5064362;28;20040;-71
2021/12/05 11:21:54;;;;;;;9.57;3.72;;;5.00;99.90;;;;;;5093339;28;20471;-72
2021/12/05 11:24:24;;;;;;;10.55;3.58;;;5.00;99.90;;;;;;5088625;28;20013;-71
2021/12/05 11:27:12;;;;;;;7.97;3.88;;;5.10;99.90;;;;;;5097368;28;20440;-71
2021/12/05 11:29:49;;;;;;;7.75;3.97;;;5.20;99.90;;;;;;5088411;28;20036;-71
2021/12/05 11:32:25;;;;;;;9.90;3.90;;;5.30;99.90;;;;;;5108143;28;20429;-71
2021/12/05 11:34:51;;;;;;;7.90;3.90;;;5.60;99.90;;;;;;5100236;28;20095;-71
2021/12/05 11:37:17;;;;;;;11.95;5.07;;;5.80;99.90;;;;;;5078794;28;20112;-71
2021/12/05 11:39:43;;;;;;;6.30;2.80;;;6.10;99.90;;;;;;5067859;28;20078;-71
2021/12/05 11:42:22;;;;;;;8.25;5.07;;;6.40;99.90;;;;;;5075555;28;20080;-71
2021/12/05 11:44:54;;;;;;;10.82;4.60;;;6.60;99.90;;;;;;5074218;28;20531;-72
2021/12/05 11:47:23;;;;;;;11.90;5.85;;;6.80;99.90;;;;;;5068886;28;20392;-71
2021/12/05 11:49:49;;;;;;;8.68;5.40;;;6.90;99.90;;;;;;5067979;28;20052;-72
2021/12/05 11:52:23;;;;;;;7.18;2.90;;;7.00;99.90;;;;;;5099178;28;20520;-71
2021/12/05 11:54:50;;;;;;;6.32;2.70;;;6.90;99.90;;;;;;5079543;28;20102;-71
2021/12/05 11:57:24;;;;;;;9.75;3.78;;;6.90;99.90;;;;;;5087592;28;20114;-72
2021/12/05 11:59:54;;;;;;;9.20;3.72;;;6.80;99.90;;;;;;5074557;28;20035;-72
2021/12/05 12:02:26;;;;;;;15.32;7.43;;;6.70;99.90;;;;;;5079912;28;20056;-71
2021/12/05 12:05:14;;;;;;;16.55;7.05;;;6.60;99.90;;;;;;5077697;28;20051;-71
2021/12/05 12:07:44;;;;;;;8.32;3.50;;;6.60;99.90;;;;;;5079010;28;20028;-71
2021/12/05 12:10:24;;;;;;;4.35;2.42;;;6.50;99.90;;;;;;5074331;28;20035;-72
2021/12/05 12:12:56;;;;;;;3.80;1.70;;;6.60;99.90;;;;;;5080781;28;20394;-72
2021/12/05 12:15:24;;;;;;;4.22;2.10;;;6.60;99.90;;;;;;5083026;28;20052;-72
2021/12/05 12:17:52;;;;;;;3.53;1.83;;;6.60;99.90;;;;;;5071069;28;20036;-72
2021/12/05 12:20:21;;;;;;;3.30;1.60;;;6.50;99.90;;;;;;5076358;28;20149;-71
2021/12/05 12:22:48;;;;;;;3.97;1.50;;;6.50;99.90;;;;;;5078645;28;20028;-72
2021/12/05 12:25:18;;;;;;;3.58;1.70;;;6.50;99.90;;;;;;5073697;28;20019;-73
2021/12/05 12:27:46;;;;;;;4.18;1.88;;;6.50;99.90;;;;;;5078187;28;20097;-72
2021/12/05 12:30:18;;;;;;;5.30;2.30;;;6.50;99.90;;;;;;5074878;28;20110;-72
2021/12/05 12:32:47;;;;;;;2.97;2.17;;;6.50;99.90;;;;;;5089096;28;20597;-72
2021/12/05 12:35:20;;;;;;;4.80;2.28;;;6.40;99.90;;;;;;5094002;28;20039;-72
2021/12/05 12:38:14;;;;;;;4.03;2.08;;;6.30;99.90;;;;;;5092463;28;20035;-72
2021/12/05 12:40:52;;;;;;;5.82;2.30;;;6.10;99.90;;;;;;5089756;28;20034;-71
2021/12/05 12:43:38;;;;;;;5.90;2.30;;;6.00;99.90;;;;;;5097141;28;20026;-71
2021/12/05 12:46:24;;;;;;;6.40;2.28;;;5.80;99.90;;;;;;5093113;28;20032;-72
2021/12/05 12:48:55;;;;;;;6.50;2.50;;;5.60;99.90;;;;;;5089732;28;20145;-72
2021/12/05 12:51:30;;;;;;;3.88;2.10;;;5.50;99.90;;;;;;5090396;28;20105;-72
2021/12/05 12:54:01;;;;;;;6.30;2.45;;;5.40;99.90;;;;;;5089369;28;20114;-72
2021/12/05 12:56:28;;;;;;;4.90;2.20;;;5.30;99.90;;;;;;5096472;28;20020;-72
2021/12/05 12:59:17;;;;;;;4.28;2.28;;;5.20;99.90;;;;;;5097088;28;20035;-72
2021/12/05 13:12:44;;;;;;;5.38;2.70;;;5.00;99.90;;;;;;5093834;28;20366;-72
2021/12/05 13:15:16;;;;;;;7.35;3.10;;;5.00;99.90;;;;;;5096095;28;20032;-72
2021/12/05 13:17:53;;;;;;;6.40;3.22;;;4.90;99.90;;;;;;5098370;28;20032;-71
2021/12/05 13:20:24;;;;;;;6.35;3.03;;;4.90;99.90;;;;;;5098063;28;20027;-72
2021/12/05 13:22:59;;;;;;;4.50;2.25;;;5.00;99.90;;;;;;5097798;28;20153;-72
2021/12/05 13:25:26;;;;;;;5.60;2.97;;;5.00;99.90;;;;;;5097967;28;20035;-72
2021/12/05 13:27:52;;;;;;;14.30;7.80;;;5.00;99.90;;;;;;5093385;28;20016;-72
2021/12/05 13:30:33;;;;;;;16.67;11.23;;;5.00;99.90;;;;;;5094556;28;20085;-72
2021/12/05 13:33:18;;;;;;;18.17;9.35;;;5.00;99.90;;;;;;5098386;28;20044;-72
2021/12/05 13:35:45;;;;;;;8.52;5.00;;;5.00;99.90;;;;;;5092740;28;20069;-72
2021/12/05 13:38:35;;;;;;;13.27;6.43;;;5.00;99.90;;;;;;5096722;28;20031;-73
2021/12/05 13:41:16;;;;;;;13.45;6.25;;;5.00;99.90;;;;;;5101941;28;20027;-72
2021/12/05 13:43:57;;;;;;;8.00;3.42;;;5.00;99.90;;;;;;5099011;28;20592;-72
2021/12/05 13:46:38;;;;;;;8.35;4.40;;;4.90;99.90;;;;;;5105935;28;20073;-72
2021/12/05 13:49:30;;;;;;;6.40;4.10;;;5.00;99.90;;;;;;5097625;28;20047;-72
2021/12/05 13:52:32;;;;;;;11.57;7.32;;;5.00;99.90;;;;;;5097838;27;20034;-71
2021/12/05 13:55:31;;;;;;;7.35;6.10;;;4.90;99.90;;;;;;5100928;28;20031;-72
2021/12/05 13:58:16;;;;;;;8.63;5.55;;;4.90;99.90;;;;;;5101577;28;20059;-72
2021/12/05 14:00:50;;;;;;;7.20;3.75;;;4.80;99.90;;;;;;5096676;28;20123;-71
2021/12/05 14:03:41;;;;;;;5.25;2.80;;;4.80;99.90;;;;;;5092140;28;20102;-72
2021/12/05 14:06:44;;;;;;;6.88;3.60;;;4.80;99.90;;;;;;5097479;28;20084;-72
2021/12/05 14:09:23;;;;;;;6.60;3.97;;;4.70;99.90;;;;;;5043069;28;20406;-72
2021/12/05 14:12:07;;;;;;;5.20;2.92;;;4.70;99.90;;;;;;5088393;28;20058;-72
2021/12/05 14:15:08;;;;;;;5.68;2.58;;;4.70;99.90;;;;;;5101544;28;20028;-73
2021/12/05 14:17:37;;;;;;;5.68;4.03;;;4.70;99.90;;;;;;5083623;28;20036;-73
2021/12/05 14:20:19;;;;;;;8.77;5.10;;;4.60;99.90;;;;;;5092682;28;20032;-73
2021/12/05 14:22:47;;;;;;;9.70;5.28;;;4.60;99.90;;;;;;5097369;28;20032;-73
2021/12/05 14:25:25;;;;;;;10.00;4.97;;;4.60;99.90;;;;;;5097817;28;20511;-73
2021/12/05 14:27:57;;;;;;;12.55;6.68;;;4.60;99.90;;;;;;5098459;28;20031;-73
2021/12/05 14:30:28;;;;;;;9.80;4.70;;;4.60;99.90;;;;;;5091358;27;20050;-72
2021/12/05 14:32:57;;;;;;;6.35;3.80;;;4.60;99.90;;;;;;5089150;28;21393;-73
2021/12/05 14:35:28;;;;;;;7.50;4.18;;;4.60;99.90;;;;;;5098145;28;20034;-73
2021/12/05 14:37:54;;;;;;;8.27;4.85;;;4.60;99.90;;;;;;5094842;28;20027;-73
2021/12/05 14:40:33;;;;;;;8.77;5.45;;;4.60;99.90;;;;;;5101379;28;20390;-73
2021/12/05 14:43:06;;;;;;;6.93;4.72;;;4.50;99.90;;;;;;5099680;28;20059;-73
2021/12/05 14:45:39;;;;;;;6.10;3.63;;;4.60;99.90;;;;;;5093631;28;20036;-73
2021/12/05 14:48:10;;;;;;;6.25;3.28;;;4.50;99.90;;;;;;5098517;27;20020;-73
2021/12/05 14:50:39;;;;;;;3.90;2.70;;;4.50;99.90;;;;;;5095598;28;20051;-73
2021/12/05 14:53:07;;;;;;;3.53;2.10;;;4.50;99.90;;;;;;5093001;28;20542;-73
2021/12/05 14:55:35;;;;;;;3.45;1.95;;;4.50;99.90;;;;;;5097456;28;20028;-73
2021/12/05 14:58:04;;;;;;;3.80;2.28;;;4.50;99.90;;;;;;5094353;28;20057;-72
2021/12/05 15:00:31;;;;;;;5.43;2.30;;;4.50;99.90;;;;;;5096324;28;20051;-73
2021/12/05 15:03:08;;;;;;;3.63;2.42;;;4.40;99.90;;;;;;5094288;28;20038;-73
2021/12/05 15:05:38;;;;;;;4.78;2.35;;;4.40;99.90;;;;;;5095912;28;20036;-73
2021/12/05 15:08:07;;;;;;;3.45;2.30;;;4.40;99.90;;;;;;5094406;28;20600;-73
2021/12/05 15:10:34;;;;;;;3.63;2.42;;;4.40;99.90;;;;;;5090743;28;20085;-72
2021/12/05 15:13:01;;;;;;;4.05;2.10;;;4.40;99.90;;;;;;5089804;28;20024;-72
2021/12/05 15:15:27;;;;;;;3.30;2.22;;;4.40;99.90;;;;;;5093746;28;20050;-72
2021/12/05 15:17:54;;;;;;;3.13;1.77;;;4.40;99.90;;;;;;5095816;28;20032;-72
2021/12/05 15:20:23;;;;;;;3.05;2.08;;;4.40;99.90;;;;;;5097286;28;20032;-73
2021/12/05 15:22:52;;;;;;;3.40;2.30;;;4.30;99.90;;;;;;5101177;28;20489;-72
2021/12/05 15:25:20;;;;;;;4.78;2.20;;;4.30;99.90;;;;;;5096958;28;20032;-73
2021/12/05 15:27:48;;;;;;;4.72;2.55;;;4.30;99.90;;;;;;5093969;28;20020;-73
2021/12/05 15:30:19;;;;;;;4.68;2.60;;;4.30;99.90;;;;;;5098307;28;20786;-72
2021/12/05 15:32:50;;;;;;;3.22;2.33;;;4.20;99.90;;;;;;5088843;28;20445;-73
2021/12/05 15:35:18;;;;;;;3.47;2.17;;;4.20;99.90;;;;;;5095723;28;20115;-72
2021/12/05 15:37:56;;;;;;;7.38;2.85;;;4.20;99.90;;;;;;5089772;28;20036;-72
2021/12/05 15:40:24;;;;;;;3.15;2.30;;;4.20;99.90;;;;;;5099700;28;20517;-72
2021/12/05 15:42:50;;;;;;;5.30;2.30;;;4.20;99.90;;;;;;5095266;28;20107;-73
2021/12/05 15:45:18;;;;;;;4.25;2.40;;;4.20;99.90;;;;;;5102775;28;20028;-73
2021/12/05 15:47:46;;;;;;;4.30;2.55;;;4.20;99.90;;;;;;5083339;28;20035;-73
2021/12/05 15:50:19;;;;;;;5.70;2.90;;;4.20;99.90;;;;;;5096627;28;20047;-73
2021/12/05 15:52:49;;;;;;;3.55;2.53;;;4.20;99.90;;;;;;5096234;28;20109;-73
2021/12/05 15:55:30;;;;;;;5.20;2.45;;;4.20;99.90;;;;;;5097191;28;20060;-72
2021/12/05 15:58:11;;;;;;;4.57;2.35;;;4.20;99.90;;;;;;5099848;28;20039;-72
2021/12/05 16:00:43;;;;;;;3.83;2.20;;;4.20;99.90;;;;;;5094252;28;20032;-72
2021/12/05 16:03:16;;;;;;;3.13;2.00;;;4.10;99.90;;;;;;5097918;28;20060;-72
2021/12/05 16:05:44;;;;;;;2.97;2.40;;;4.20;99.90;;;;;;5091566;28;20103;-72
2021/12/05 16:08:15;;;;;;;3.85;2.20;;;4.10;99.90;;;;;;5100018;28;20035;-72
2021/12/05 16:10:44;;;;;;;4.93;2.20;;;4.10;99.90;;;;;;5101996;28;20110;-73
2021/12/05 16:13:38;;;;;;;3.47;2.22;;;4.10;99.90;;;;;;5091920;28;20241;-73
2021/12/05 16:16:10;;;;;;;2.75;1.83;;;4.10;99.90;;;;;;5088754;28;20032;-72
2021/12/05 16:18:37;;;;;;;3.83;2.10;;;4.10;99.90;;;;;;5099905;28;20020;-72
2021/12/05 16:21:13;;;;;;;3.30;2.30;;;4.10;99.90;;;;;;5098136;28;20023;-72
2021/12/05 16:23:38;;;;;;;4.40;2.65;;;4.10;99.90;;;;;;5102540;28;20028;-72
2021/12/05 16:26:14;;;;;;;5.28;2.45;;;4.10;99.90;;;;;;5094695;28;20066;-73
2021/12/05 16:28:41;;;;;;;2.95;2.00;;;4.20;99.90;;;;;;5096584;28;20500;-72
2021/12/05 16:31:15;;;;;;;6.53;2.45;;;4.20;99.90;;;;;;5098572;28;20028;-72
2021/12/05 16:33:45;;;;;;;2.63;1.90;;;4.20;99.90;;;;;;5078615;28;20056;-73
2021/12/05 16:36:11;;;;;;;3.95;2.50;;;4.20;99.90;;;;;;5074363;28;20028;-72
2021/12/05 16:38:44;;;;;;;5.05;2.45;;;4.30;99.90;;;;;;5077603;28;20028;-73
2021/12/05 16:41:28;;;;;;;3.63;2.30;;;4.30;99.90;;;;;;5078071;28;20494;-72
2021/12/05 16:44:02;;;;;;;6.53;2.20;;;4.30;99.90;;;;;;5080069;28;20081;-72
2021/12/05 16:46:33;;;;;;;3.45;2.67;;;4.20;99.90;;;;;;5081022;28;20421;-72
2021/12/05 16:49:03;;;;;;;3.90;2.55;;;4.20;99.90;;;;;;5077163;28;20111;-72
2021/12/05 16:51:37;;;;;;;5.57;2.67;;;4.20;99.90;;;;;;5082430;28;20126;-72
2021/12/05 16:54:18;;;;;;;5.78;2.75;;;4.20;99.90;;;;;;5077463;28;20056;-72
2021/12/05 16:56:49;;;;;;;3.15;2.85;;;4.20;99.90;;;;;;5073940;28;20031;-72
2021/12/05 16:59:20;;;;;;;5.25;3.10;;;4.20;99.90;;;;;;5076672;28;20036;-73
2021/12/05 17:01:46;;;;;;;5.13;3.25;;;4.10;99.90;;;;;;5077507;28;20023;-72
2021/12/05 17:04:13;;;;;;;4.93;3.45;;;4.20;99.90;;;;;;5073229;28;20025;-73
2021/12/05 17:06:53;;;;;;;5.32;3.13;;;4.20;99.90;;;;;;5074106;28;20052;-72
2021/12/05 17:09:20;;;;;;;7.03;3.45;;;4.20;99.90;;;;;;5077027;28;23493;-73
2021/12/05 17:11:46;;;;;;;6.10;3.72;;;4.20;99.90;;;;;;5083652;28;20028;-72
2021/12/05 17:14:23;;;;;;;8.13;3.70;;;4.30;99.90;;;;;;5075499;28;20028;-73
2021/12/05 17:16:49;;;;;;;7.43;3.25;;;4.40;99.90;;;;;;5077376;28;20214;-73
2021/12/05 17:19:18;;;;;;;8.63;4.38;;;4.40;99.90;;;;;;5077616;28;20040;-73
2021/12/05 17:21:48;;;;;;;9.60;5.43;;;4.50;99.90;;;;;;5078122;28;20381;-73
2021/12/05 17:24:18;;;;;;;7.60;5.07;;;4.40;99.90;;;;;;5076872;28;20482;-73
2021/12/05 17:26:46;;;;;;;8.00;5.45;;;4.50;99.90;;;;;;5089676;28;20039;-73
2021/12/05 17:29:19;;;;;;;9.80;5.70;;;4.50;99.90;;;;;;5073130;28;20107;-72
2021/12/05 17:31:50;;;;;;;8.20;5.13;;;4.50;99.90;;;;;;5080444;28;20115;-72
2021/12/05 17:34:45;;;;;;;16.20;6.63;;;4.50;99.90;;;;;;5094157;28;20401;-73
2021/12/05 17:37:14;;;;;;;11.38;7.28;;;4.50;99.90;;;;;;5097766;28;20031;-73
2021/12/05 17:39:44;;;;;;;8.30;6.35;;;4.50;99.90;;;;;;5101206;28;20027;-73
2021/12/05 17:42:12;;;;;;;13.13;6.85;;;4.50;99.90;;;;;;5093229;28;20092;-73
2021/12/05 17:44:40;;;;;;;11.93;6.88;;;4.50;99.90;;;;;;5100221;28;20072;-73
2021/12/05 17:47:09;;;;;;;9.48;6.20;;;4.50;99.90;;;;;;5097397;28;20024;-73
2021/12/05 17:49:36;;;;;;;9.40;6.28;;;4.50;99.90;;;;;;5101394;28;20050;-73
2021/12/05 17:52:06;;;;;;;11.02;6.45;;;4.50;99.90;;;;;;5091571;28;20390;-73
2021/12/05 17:54:39;;;;;;;9.68;6.40;;;4.50;99.90;;;;;;5094959;28;20027;-72
2021/12/05 17:57:11;;;;;;;11.18;6.05;;;4.50;99.90;;;;;;5091690;28;20321;-72
2021/12/05 18:04:52;;;;;;;9.80;6.05;;;4.30;99.90;;;;;;4740414;28;10000190;-72
2021/12/05 18:07:19;;;;;;;9.65;6.80;;;4.30;99.90;;;;;;5084829;28;20032;-72
2021/12/05 18:09:46;;;;;;;10.48;6.60;;;4.40;99.90;;;;;;5091676;28;20622;-72
2021/12/05 18:12:19;;;;;;;11.25;6.65;;;4.40;99.90;;;;;;5094168;28;20040;-73
2021/12/05 18:14:47;;;;;;;9.60;6.03;;;4.40;99.90;;;;;;5094239;28;20043;-73
2021/12/05 18:17:13;;;;;;;8.95;5.38;;;4.40;99.90;;;;;;5089265;28;20176;-72
2021/12/05 18:19:38;;;;;;;9.48;6.47;;;4.40;99.90;;;;;;5100213;28;20624;-72
2021/12/05 18:22:04;;;;;;;8.48;6.00;;;4.30;99.90;;;;;;5089991;28;20023;-73
2021/12/05 18:24:31;;;;;;;11.43;6.85;;;4.20;99.90;;;;;;5101197;28;20036;-73
2021/12/05 18:26:58;;;;;;;10.23;6.75;;;4.20;99.90;;;;;;5092042;28;20449;-72
2021/12/05 18:29:24;;;;;;;8.40;5.88;;;4.20;99.90;;;;;;5103709;28;20028;-74
2021/12/05 18:31:50;;;;;;;8.27;5.25;;;4.20;99.90;;;;;;5097444;28;20035;-74
2021/12/05 18:34:24;;;;;;;8.80;5.40;;;4.20;99.90;;;;;;5102784;28;20024;-73
2021/12/05 18:36:52;;;;;;;8.05;5.03;;;4.20;99.90;;;;;;5101103;28;20028;-74
2021/12/05 18:39:23;;;;;;;7.07;4.72;;;4.10;99.90;;;;;;5093048;28;20394;-74
2021/12/05 18:41:51;;;;;;;6.55;4.47;;;4.10;99.90;;;;;;5094230;28;20089;-74
2021/12/05 18:44:21;;;;;;;5.43;3.95;;;4.00;99.90;;;;;;5101808;28;20019;-74
2021/12/05 18:46:47;;;;;;;5.85;3.80;;;4.10;99.90;;;;;;5103934;28;20428;-73